createdAt,value
2018-09-03T00:02:18.164Z,21.78
2018-09-03T00:04:47.172Z,21.73
2018-09-03T00:07:16.246Z,21.55
2018-09-03T00:09:45.078Z,21.42
2018-09-03T00:12:14.052Z,21.33
2018-09-03T00:14:42.891Z,21.30
2018-09-03T00:17:12.270Z,21.44
2018-09-03T00:19:42.227Z,21.54
2018-09-03T00:22:12.124Z,21.60
2018-09-03T00:24:42.412Z,21.93
2018-09-03T00:27:12.541Z,22.25
2018-09-03T00:29:42.823Z,22.14
2018-09-03T00:32:19.204Z,21.77
2018-09-03T00:34:53.817Z,21.76
2018-09-03T00:39:32.942Z,21.51
2018-09-03T00:42:07.012Z,20.79
2018-09-03T00:44:41.119Z,20.93
2018-09-03T00:47:11.191Z,21.12
2018-09-03T00:49:40.413Z,21.06
2018-09-03T00:52:09.300Z,21.24
2018-09-03T00:54:39.220Z,21.44
2018-09-03T00:57:08.193Z,21.51
2018-09-03T00:59:39.248Z,21.64
2018-09-03T01:02:08.373Z,21.66
2018-09-03T01:04:37.338Z,21.72
2018-09-03T01:07:06.468Z,21.49
2018-09-03T01:09:35.533Z,21.92
2018-09-03T01:12:05.208Z,21.57
2018-09-03T01:14:34.408Z,21.45
2018-09-03T01:17:03.244Z,21.61
2018-09-03T01:19:32.359Z,21.52
2018-09-03T01:22:01.668Z,21.54
2018-09-03T01:24:30.540Z,21.60
2018-09-03T01:26:59.493Z,21.63
2018-09-03T01:29:28.502Z,21.63
2018-09-03T01:32:00.644Z,21.59
2018-09-03T01:34:30.542Z,21.56
2018-09-03T01:37:02.952Z,21.75
2018-09-03T01:39:34.167Z,21.81
2018-09-03T01:42:05.707Z,21.59
2018-09-03T01:44:35.961Z,21.81
2018-09-03T01:47:07.574Z,21.73
2018-09-03T01:49:37.669Z,21.72
2018-09-03T01:52:09.986Z,21.45
2018-09-03T01:54:43.315Z,21.56
2018-09-03T01:57:14.150Z,21.53
2018-09-03T01:59:47.344Z,21.63
2018-09-03T02:02:17.873Z,21.73
2018-09-03T02:04:50.063Z,21.87
2018-09-03T02:07:23.578Z,21.90
2018-09-03T02:09:55.662Z,21.81
2018-09-03T02:12:29.633Z,21.80
2018-09-03T02:15:00.694Z,21.79
2018-09-03T02:17:32.731Z,21.76
2018-09-03T02:20:03.746Z,21.88
2018-09-03T02:22:36.672Z,22.03
2018-09-03T02:25:08.472Z,21.77
2018-09-03T02:27:39.161Z,21.76
2018-09-03T02:30:09.811Z,21.87
2018-09-03T02:32:40.769Z,21.64
2018-09-03T02:35:12.105Z,21.50
2018-09-03T02:37:42.653Z,21.47
2018-09-03T02:40:15.901Z,21.44
2018-09-03T02:42:48.505Z,21.45
2018-09-03T02:45:19.219Z,21.53
2018-09-03T02:47:50.020Z,21.53
2018-09-03T02:50:19.675Z,21.52
2018-09-03T02:55:28.987Z,21.43
2018-09-03T02:57:59.857Z,21.51
2018-09-03T03:03:08.020Z,21.47
2018-09-03T03:05:40.110Z,21.51
2018-09-03T03:08:12.664Z,21.44
2018-09-03T03:10:44.177Z,21.45
2018-09-03T03:13:16.729Z,21.55
2018-09-03T03:15:47.898Z,21.69
2018-09-03T03:18:23.268Z,21.70
2018-09-03T03:21:06.261Z,21.84
2018-09-03T03:23:41.194Z,21.78
2018-09-03T03:26:22.857Z,21.67
2018-09-03T03:28:59.321Z,21.57
2018-09-03T03:31:33.888Z,21.50
2018-09-03T03:34:09.295Z,21.61
2018-09-03T03:36:48.507Z,21.62
2018-09-03T03:39:26.165Z,21.54
2018-09-03T03:42:02.593Z,21.57
2018-09-03T03:44:39.992Z,21.63
2018-09-03T03:47:13.691Z,21.64
2018-09-03T03:49:48.314Z,21.65
2018-09-03T03:52:26.069Z,21.47
2018-09-03T03:55:04.026Z,21.41
2018-09-03T03:57:41.824Z,21.55
2018-09-03T04:00:16.686Z,21.55
2018-09-03T04:02:50.765Z,21.58
2018-09-03T04:05:32.558Z,21.64
2018-09-03T04:08:13.799Z,21.65
2018-09-03T04:10:49.341Z,21.65
2018-09-03T04:13:24.438Z,21.71
2018-09-03T04:18:48.605Z,21.76
2018-09-03T04:21:26.748Z,21.67
2018-09-03T04:29:14.088Z,21.35
2018-09-03T04:31:49.620Z,21.31
2018-09-03T04:34:32.537Z,21.27
2018-09-03T04:37:12.861Z,21.45
2018-09-03T04:39:54.044Z,21.55
2018-09-03T04:42:34.041Z,21.59
2018-09-03T04:45:09.122Z,21.57
2018-09-03T04:47:42.101Z,21.39
2018-09-03T04:50:26.348Z,21.14
2018-09-03T04:53:07.843Z,21.07
2018-09-03T04:55:43.670Z,21.33
2018-09-03T04:58:21.294Z,21.24
2018-09-03T05:00:58.164Z,21.03
2018-09-03T05:03:37.064Z,21.11
2018-09-03T05:06:17.908Z,21.11
2018-09-03T05:08:55.990Z,21.13
2018-09-03T05:11:32.274Z,21.15
2018-09-03T05:14:08.200Z,21.23
2018-09-03T05:16:52.735Z,21.42
2018-09-03T05:19:36.634Z,21.63
2018-09-03T05:22:17.599Z,21.77
2018-09-03T05:24:52.508Z,21.85
2018-09-03T05:27:33.163Z,22.18
2018-09-03T05:30:17.175Z,22.02
2018-09-03T05:32:50.907Z,22.03
2018-09-03T05:35:24.808Z,22.18
2018-09-03T05:38:05.555Z,22.31
2018-09-03T05:40:42.907Z,22.34
2018-09-03T05:43:21.611Z,22.35
2018-09-03T05:45:59.540Z,22.51
2018-09-03T05:48:38.858Z,22.50
2018-09-03T05:53:52.102Z,22.64
2018-09-03T05:56:33.493Z,22.64
2018-09-03T05:59:15.762Z,22.55
2018-09-03T06:01:58.810Z,22.29
2018-09-03T06:04:34.973Z,22.40
2018-09-03T06:10:00.662Z,22.19
2018-09-03T06:12:41.837Z,22.20
2018-09-03T06:18:07.547Z,22.26
2018-09-03T06:20:58.166Z,22.34
2018-09-03T06:28:56.733Z,22.49
2018-09-03T06:31:40.484Z,22.58
2018-09-03T06:34:22.203Z,22.53
2018-09-03T06:37:05.097Z,22.85
2018-09-03T06:39:50.245Z,23.45
2018-09-03T06:42:31.810Z,23.47
2018-09-03T06:45:14.387Z,23.31
2018-09-03T06:47:58.352Z,23.13
2018-09-03T06:53:27.667Z,23.43
2018-09-03T06:56:17.577Z,23.72
2018-09-03T06:59:06.601Z,24.33
2018-09-03T07:01:48.819Z,24.41
2018-09-03T07:04:34.606Z,24.12
2018-09-03T07:07:14.402Z,24.01
2018-09-03T07:09:58.080Z,24.11
2018-09-03T07:12:39.989Z,23.95
2018-09-03T07:15:24.958Z,23.90
2018-09-03T07:18:06.046Z,24.00
2018-09-03T07:20:46.346Z,24.06
2018-09-03T07:23:33.029Z,24.20
2018-09-03T07:26:22.083Z,24.14
2018-09-03T07:29:06.076Z,24.21
2018-09-03T07:31:53.740Z,24.22
2018-09-03T07:34:39.550Z,24.67
2018-09-03T07:37:26.478Z,24.77
2018-09-03T07:40:08.603Z,24.91
2018-09-03T07:42:57.203Z,24.98
2018-09-03T07:45:43.419Z,24.52
2018-09-03T07:48:27.878Z,24.79
2018-09-03T07:51:16.265Z,25.11
2018-09-03T07:54:02.840Z,25.24
2018-09-03T07:56:48.273Z,25.34
2018-09-03T07:59:38.394Z,25.70
2018-09-03T08:02:21.416Z,25.70
2018-09-03T08:05:07.988Z,25.61
2018-09-03T08:07:48.493Z,25.52
2018-09-03T08:10:35.692Z,25.27
2018-09-03T08:13:26.987Z,25.04
2018-09-03T08:19:03.813Z,25.23
2018-09-03T08:21:48.577Z,25.27
2018-09-03T08:24:26.879Z,25.43
2018-09-03T08:27:18.284Z,25.37
2018-09-03T08:30:04.201Z,25.05
2018-09-03T08:32:56.222Z,25.18
2018-09-03T08:35:35.797Z,25.40
2018-09-03T08:38:19.776Z,25.55
2018-09-03T08:40:55.891Z,25.75
2018-09-03T08:43:34.311Z,25.85
2018-09-03T08:46:17.645Z,25.76
2018-09-03T08:48:59.906Z,25.78
2018-09-03T08:54:36.710Z,25.84
2018-09-03T08:57:22.196Z,25.53
2018-09-03T09:02:55.853Z,25.61
2018-09-03T09:05:38.395Z,25.77
2018-09-03T09:08:19.328Z,25.79
2018-09-03T09:10:59.098Z,25.93
2018-09-03T09:13:47.727Z,26.11
2018-09-03T09:19:14.194Z,26.12
2018-09-03T09:21:59.331Z,26.38
2018-09-03T09:24:43.769Z,26.61
2018-09-03T09:27:32.165Z,26.69
2018-09-03T09:30:15.657Z,26.60
2018-09-03T09:33:06.428Z,26.45
2018-09-03T09:35:51.795Z,26.60
2018-09-03T09:41:29.614Z,26.80
2018-09-03T09:44:19.112Z,26.59
2018-09-03T09:47:01.311Z,26.74
2018-09-03T09:49:46.333Z,27.12
2018-09-03T09:52:29.388Z,26.73
2018-09-03T09:55:21.378Z,26.05
2018-09-03T09:58:03.509Z,26.85
2018-09-03T10:00:50.663Z,27.44
2018-09-03T10:03:38.164Z,27.18
2018-09-03T10:06:22.028Z,27.45
2018-09-03T10:09:07.507Z,27.37
2018-09-03T10:11:47.646Z,27.63
2018-09-03T10:14:30.379Z,27.58
2018-09-03T10:17:11.370Z,27.17
2018-09-03T10:19:51.282Z,27.21
2018-09-03T10:22:32.590Z,27.03
2018-09-03T10:25:21.735Z,26.86
2018-09-03T10:30:56.033Z,26.36
2018-09-03T10:33:37.987Z,26.02
2018-09-03T10:36:29.636Z,25.40
2018-09-03T10:39:19.486Z,24.77
2018-09-03T10:41:58.724Z,24.92
2018-09-03T10:44:38.969Z,25.63
2018-09-03T10:47:29.107Z,26.32
2018-09-03T10:50:16.656Z,25.83
2018-09-03T10:55:48.808Z,25.57
2018-09-03T10:58:39.536Z,25.81
2018-09-03T11:01:28.248Z,25.99
2018-09-03T11:04:13.325Z,26.17
2018-09-03T11:06:56.149Z,26.53
2018-09-03T11:12:25.323Z,26.10
2018-09-03T11:15:02.083Z,25.92
2018-09-03T11:17:43.070Z,25.72
2018-09-03T11:20:30.848Z,26.39
2018-09-03T11:23:14.805Z,26.63
2018-09-03T11:28:42.860Z,27.75
2018-09-03T11:31:23.653Z,27.36
2018-09-03T11:34:05.764Z,27.13
2018-09-03T11:36:51.560Z,27.99
2018-09-03T11:39:42.143Z,28.06
2018-09-03T11:42:32.639Z,27.37
2018-09-03T11:45:12.031Z,26.39
2018-09-03T11:47:55.244Z,26.13
2018-09-03T11:50:42.540Z,26.43
2018-09-03T11:53:17.047Z,27.16
2018-09-03T11:55:53.673Z,27.36
2018-09-03T11:58:28.766Z,27.43
2018-09-03T12:01:03.879Z,27.72
2018-09-03T12:03:37.009Z,27.60
2018-09-03T12:06:13.977Z,27.33
2018-09-03T12:08:50.541Z,26.79
2018-09-03T12:11:29.599Z,26.71
2018-09-03T12:14:24.968Z,27.04
2018-09-03T12:17:00.813Z,27.40
2018-09-03T12:19:41.101Z,27.45
2018-09-03T12:22:25.041Z,28.29
2018-09-03T12:25:03.457Z,28.38
2018-09-03T12:27:44.641Z,28.82
2018-09-03T12:30:23.983Z,29.26
2018-09-03T12:33:00.842Z,28.78
2018-09-03T12:35:43.503Z,28.57
2018-09-03T12:38:22.702Z,28.70
2018-09-03T12:41:07.777Z,28.97
2018-09-03T12:43:43.431Z,29.21
2018-09-03T12:49:00.868Z,28.27
2018-09-03T12:51:39.919Z,28.45
2018-09-03T12:54:15.483Z,28.37
2018-09-03T12:56:57.242Z,28.20
2018-09-03T12:59:39.103Z,28.28
2018-09-03T13:02:22.000Z,28.18
2018-09-03T13:04:59.549Z,28.03
2018-09-03T13:07:47.493Z,27.66
2018-09-03T13:13:06.460Z,27.46
2018-09-03T13:15:46.607Z,27.84
2018-09-03T13:18:28.215Z,27.93
2018-09-03T13:21:10.476Z,27.84
2018-09-03T13:23:47.224Z,27.84
2018-09-03T13:26:26.131Z,27.66
2018-09-03T13:29:06.589Z,27.58
2018-09-03T13:31:50.227Z,27.76
2018-09-03T13:34:28.644Z,28.29
2018-09-03T13:39:46.593Z,27.91
2018-09-03T13:42:22.449Z,27.65
2018-09-03T13:47:45.854Z,27.09
2018-09-03T13:50:19.843Z,26.79
2018-09-03T13:52:55.582Z,26.90
2018-09-03T13:55:38.825Z,27.07
2018-09-03T13:58:22.291Z,26.62
2018-09-03T14:01:04.829Z,26.55
2018-09-03T14:03:43.997Z,26.74
2018-09-03T14:06:25.760Z,26.97
2018-09-03T14:09:03.015Z,27.66
2018-09-03T14:11:40.424Z,28.05
2018-09-03T14:14:17.787Z,28.23
2018-09-03T14:16:51.709Z,28.17
2018-09-03T14:19:33.355Z,27.97
2018-09-03T14:22:11.588Z,28.43
2018-09-03T14:24:48.571Z,28.92
2018-09-03T14:27:25.469Z,29.17
2018-09-03T14:30:08.964Z,29.37
2018-09-03T14:32:54.750Z,28.41
2018-09-03T14:35:34.506Z,28.45
2018-09-03T14:38:14.058Z,28.55
2018-09-03T14:40:52.943Z,28.47
2018-09-03T14:43:29.473Z,29.03
2018-09-03T14:46:13.302Z,29.11
2018-09-03T14:48:57.144Z,29.32
2018-09-03T14:51:37.859Z,29.48
2018-09-03T14:54:20.645Z,29.11
2018-09-03T14:56:54.530Z,29.47
2018-09-03T14:59:33.047Z,29.73
2018-09-03T15:02:16.894Z,29.40
2018-09-03T15:04:52.708Z,29.54
2018-09-03T15:07:33.720Z,29.11
2018-09-03T15:10:16.639Z,29.21
2018-09-03T15:13:03.850Z,29.11
2018-09-03T15:15:48.423Z,29.00
2018-09-03T15:18:22.114Z,29.01
2018-09-03T15:20:58.543Z,28.98
2018-09-03T15:23:32.093Z,28.96
2018-09-03T15:26:09.411Z,29.02
2018-09-03T15:28:51.695Z,29.14
2018-09-03T15:31:31.443Z,29.60
2018-09-03T15:34:08.195Z,29.96
2018-09-03T15:36:49.423Z,29.81
2018-09-03T15:39:28.514Z,30.13
2018-09-03T15:42:12.851Z,30.11
2018-09-03T15:44:52.764Z,30.10
2018-09-03T15:47:26.438Z,29.78
2018-09-03T15:55:35.500Z,29.75
2018-09-03T15:58:14.084Z,29.61
2018-09-03T16:00:54.190Z,29.61
2018-09-03T16:03:28.751Z,29.43
2018-09-03T16:08:48.604Z,29.28
2018-09-03T16:11:25.648Z,29.00
2018-09-03T16:16:47.511Z,29.50
2018-09-03T16:19:24.624Z,29.46
2018-09-03T16:22:05.184Z,29.15
2018-09-03T16:24:46.379Z,29.26
2018-09-03T16:27:27.340Z,29.07
2018-09-03T16:30:11.898Z,28.94
2018-09-03T16:32:50.429Z,28.64
2018-09-03T16:35:26.784Z,28.28
2018-09-03T16:38:05.558Z,27.92
2018-09-03T16:40:41.907Z,27.34
2018-09-03T16:46:00.846Z,27.47
2018-09-03T16:48:44.628Z,27.36
2018-09-03T16:51:21.665Z,27.22
2018-09-03T16:53:58.853Z,27.05
2018-09-03T16:56:39.961Z,26.80
2018-09-03T16:59:18.448Z,26.93
2018-09-03T17:01:56.048Z,27.36
2018-09-03T17:04:32.532Z,27.04
2018-09-03T17:07:12.124Z,26.72
2018-09-03T17:09:46.309Z,26.40
2018-09-03T17:12:27.032Z,26.32
2018-09-03T17:17:46.127Z,26.07
2018-09-03T17:20:28.143Z,26.10
2018-09-03T17:23:14.134Z,26.06
2018-09-03T17:25:52.771Z,26.20
2018-09-03T17:28:34.902Z,26.26
2018-09-03T17:31:15.510Z,26.33
2018-09-03T17:33:57.604Z,26.42
2018-09-03T17:36:40.515Z,25.89
2018-09-03T17:39:19.195Z,25.42
2018-09-03T17:41:58.100Z,25.70
2018-09-03T17:44:36.956Z,25.60
2018-09-03T17:47:20.750Z,25.60
2018-09-03T17:55:32.778Z,25.53
2018-09-03T17:58:07.522Z,25.36
2018-09-03T18:00:49.764Z,25.36
2018-09-03T18:03:30.309Z,25.26
2018-09-03T18:06:13.326Z,24.87
2018-09-03T18:08:48.856Z,24.77
2018-09-03T18:11:28.568Z,24.79
2018-09-03T18:14:04.785Z,24.72
2018-09-03T18:16:44.330Z,24.80
2018-09-03T18:19:26.396Z,24.82
2018-09-03T18:22:03.419Z,25.26
2018-09-03T18:24:45.905Z,25.33
2018-09-03T18:27:21.662Z,25.38
2018-09-03T18:30:06.681Z,25.23
2018-09-03T18:40:42.309Z,24.21
2018-09-03T18:43:25.609Z,24.14
2018-09-03T18:46:04.073Z,24.08
2018-09-03T18:48:46.170Z,24.23
2018-09-03T18:51:24.112Z,24.26
2018-09-03T18:54:05.105Z,24.34
2018-09-03T18:56:44.933Z,24.62
2018-09-03T18:59:23.942Z,24.59
2018-09-03T19:02:07.360Z,24.36
2018-09-03T19:04:48.850Z,24.21
2018-09-03T19:07:30.258Z,24.27
2018-09-03T19:10:14.893Z,24.15
2018-09-03T19:12:52.854Z,23.91
2018-09-03T19:18:13.355Z,24.15
2018-09-03T19:20:50.297Z,24.71
2018-09-03T19:23:34.276Z,24.80
2018-09-03T19:26:13.648Z,24.53
2018-09-03T19:28:55.382Z,24.55
2018-09-03T19:31:33.354Z,24.45
2018-09-03T19:34:13.127Z,24.42
2018-09-03T19:36:50.736Z,24.28
2018-09-03T19:39:25.163Z,24.38
2018-09-03T19:42:02.436Z,24.28
2018-09-03T19:44:39.925Z,24.08
2018-09-03T19:50:00.018Z,23.90
2018-09-03T19:52:42.584Z,23.99
2018-09-03T19:55:18.101Z,24.00
2018-09-03T19:57:57.302Z,23.96
2018-09-03T20:00:42.897Z,23.90
2018-09-03T20:03:21.937Z,23.80
2018-09-03T20:08:48.989Z,23.99
2018-09-03T20:11:29.315Z,24.18
2018-09-03T20:16:52.182Z,23.99
2018-09-03T20:19:33.327Z,24.06
2018-09-03T20:22:13.781Z,23.88
2018-09-03T20:24:50.541Z,23.62
2018-09-03T20:27:36.029Z,23.76
2018-09-03T20:32:59.282Z,23.87
2018-09-03T20:35:38.522Z,23.45
2018-09-03T20:38:12.710Z,23.20
2018-09-03T20:40:53.775Z,23.28
2018-09-03T20:46:12.769Z,23.64
2018-09-03T20:48:55.738Z,23.69
2018-09-03T20:51:37.222Z,23.79
2018-09-03T20:54:24.159Z,23.76
2018-09-03T20:59:53.114Z,22.95
2018-09-03T21:02:32.793Z,22.76
2018-09-03T21:05:12.118Z,22.94
2018-09-03T21:07:48.956Z,23.07
2018-09-03T21:10:26.336Z,23.34
2018-09-03T21:13:06.010Z,23.54
2018-09-03T21:15:45.365Z,23.30
2018-09-03T21:18:26.386Z,23.14
2018-09-03T21:21:10.740Z,22.97
2018-09-03T21:23:55.069Z,22.99
2018-09-03T21:26:35.953Z,23.03
2018-09-03T21:29:11.713Z,23.00
2018-09-03T21:31:48.903Z,23.10
2018-09-03T21:34:27.136Z,23.22
2018-09-03T21:37:08.223Z,23.22
2018-09-03T21:39:50.032Z,23.16
2018-09-03T21:42:29.226Z,23.69
2018-09-03T21:45:04.697Z,23.81
2018-09-03T21:47:44.513Z,23.59
2018-09-03T21:50:24.994Z,23.35
2018-09-03T21:53:00.450Z,23.15
2018-09-03T21:55:40.363Z,23.14
2018-09-03T21:58:16.218Z,23.12
2018-09-03T22:00:59.489Z,23.20
2018-09-03T22:03:35.711Z,22.93
2018-09-03T22:06:15.639Z,22.80
2018-09-03T22:11:43.901Z,22.81
2018-09-03T22:14:29.842Z,22.81
2018-09-03T22:17:07.985Z,22.74
2018-09-03T22:22:26.129Z,22.81
2018-09-03T22:25:06.899Z,22.65
2018-09-03T22:27:49.472Z,22.52
2018-09-03T22:30:26.687Z,22.59
2018-09-03T22:38:33.948Z,22.87
2018-09-03T22:41:17.483Z,22.66
2018-09-03T22:46:42.984Z,22.41
2018-09-03T22:49:25.644Z,22.51
2018-09-03T22:52:10.872Z,22.42
2018-09-03T22:54:47.968Z,22.22
2018-09-03T22:57:26.121Z,22.23
2018-09-03T23:00:03.727Z,22.26
2018-09-03T23:02:43.653Z,22.13
2018-09-03T23:05:26.641Z,22.25
2018-09-03T23:08:10.192Z,22.26
2018-09-03T23:10:50.966Z,22.22
2018-09-03T23:13:32.760Z,22.25
2018-09-03T23:16:10.839Z,22.25
2018-09-03T23:18:51.305Z,22.22
2018-09-03T23:21:31.940Z,22.21
2018-09-03T23:24:12.530Z,22.25
2018-09-03T23:26:49.279Z,22.59
2018-09-03T23:29:28.876Z,22.70
2018-09-03T23:32:05.693Z,22.57
2018-09-03T23:37:23.140Z,22.40
2018-09-03T23:40:00.353Z,22.27
2018-09-03T23:42:40.440Z,22.65
2018-09-03T23:48:09.646Z,22.14
2018-09-03T23:50:50.367Z,22.26
2018-09-03T23:53:31.766Z,22.18
2018-09-03T23:56:14.151Z,22.11
2018-09-03T23:58:54.085Z,22.35
